Terminal Aerodrome Forecast
Issued by NWS

Home | Current Version | Previous Version | Text Only | Print | Product List | Glossary On
Versions: 1 2 3 4 5 6 7 8 9 10 11 12 13 14 15 16 17 18 19 20 21
000
FTUS43 KDLH 270100 AAA
TAFHYR
TAF AMD
KHYR 270154Z 2702/2724 VRB03KT P6SM SCT140
     FM270300 VRB03KT P6SM VCSH BKN120
      TEMPO 2703/2706 -SHRA
     FM270600 00000KT P6SM VCSH SCT060 OVC100
      TEMPO 2708/2711 5SM -SHRA BR BKN050
     FM271100 VRB02KT P6SM BKN090
     FM271600 VRB03KT P6SM SCT050=

USA.gov is the U.S. government's official web portal to all federal, state and local government web resources and services.